Data for 05/15/2017

Time Sea-Level Adjusted Pressure Absolute Pressure Temperature Relative Humidity Dew Point   
(mb) (inHg) (mb) (inHg) (C) (F) (%) (C) (F)
00:05 1014 29.94 843 24.89 7.4 45.4 41 -4.9 23.2
00:10 1014 29.94 843 24.89 7.4 45.4 41 -5.1 22.8
00:15 1014 29.94 843 24.89 7.5 45.4 41 -5.1 22.9
00:20 1014 29.94 843 24.89 7.4 45.3 41 -4.9 23.1
00:25 1014 29.94 843 24.89 7.2 45 45 -4 24.9
00:30 1014 29.94 843 24.89 6.8 44.3 48 -3.4 25.9
00:35 1014 29.94 843 24.89 6.6 43.9 48 -3.5 25.7
00:40 1014 29.94 843 24.89 6.6 43.9 48 -3.7 25.4
00:45 1014 29.94 843 24.89 6.5 43.8 49 -3.5 25.7
00:50 1014 29.94 843 24.89 6.5 43.6 51 -2.8 26.9
00:55 1014 29.94 843 24.89 6.2 43.1 53 -2.6 27.4
01:00 1014 29.94 843 24.89 6 42.8 55 -2.4 27.7
01:05 1014 29.94 843 24.89 5.9 42.6 56 -2.2 28.1
01:10 1014 29.94 843 24.89 5.8 42.4 58 -1.9 28.5
01:15 1014 29.94 843 24.89 5.8 42.4 58 -1.9 28.6
01:20 1014 29.94 843 24.89 5.8 42.5 58 -1.8 28.8
01:25 1014 29.94 843 24.89 5.9 42.5 58 -1.6 29
01:30 1014 29.94 843 24.89 5.8 42.4 59 -1.6 29.1
01:35 1014 29.94 843 24.89 5.7 42.2 60 -1.5 29.3
01:40 1014 29.94 843 24.89 5.5 41.9 60 -1.6 29.2
01:45 1014 29.94 843 24.89 5.4 41.7 59 -1.9 28.6
01:50 1014 29.94 843 24.89 5.4 41.7 60 -1.7 28.9
01:55 1014 29.94 843 24.89 5.6 42 51 -3.8 25.1
02:00 1014 29.94 843 24.89 5.8 42.4 55 -2.5 27.5
02:05 1014 29.94 843 24.89 5.5 41.9 56 -2.6 27.3
02:10 1014 29.94 843 24.89 5.4 41.8 55 -3 26.6
02:15 1014 29.94 843 24.89 5.5 41.9 54 -3 26.6
02:20 1014 29.94 843 24.89 5.4 41.8 57 -2.3 27.8
02:25 1014 29.94 843 24.89 5.3 41.6 60 -1.9 28.7
02:30 1013 29.91 843 24.89 5.1 41.2 59 -2.2 28
02:35 1013 29.91 843 24.89 5 41 60 -2 28.4
02:40 1013 29.91 843 24.89 5 41 61 -2 28.4
02:45 1013 29.91 843 24.89 5 41 59 -2.3 27.8
02:50 1013 29.91 843 24.89 5.1 41.1 58 -2.6 27.4
02:55 1013 29.91 843 24.89 5 41.1 59 -2.3 27.8
03:00 1013 29.91 843 24.89 5 41.1 59 -2.2 28
03:05 1013 29.91 843 24.89 4.9 40.9 61 -2 28.5
03:10 1014 29.94 843 24.89 4.8 40.6 62 -1.8 28.8
03:15 1014 29.94 843 24.89 4.7 40.4 62 -2 28.5
03:20 1014 29.94 843 24.89 4.7 40.4 61 -2.1 28.2
03:25 1013 29.91 843 24.89 4.6 40.2 61 -2.4 27.8
03:30 1014 29.94 843 24.89 4.6 40.2 63 -2 28.5
03:35 1014 29.94 843 24.89 4.5 40.1 64 -1.7 28.9
03:40 1014 29.94 843 24.89 4.5 40.1 62 -2.1 28.3
03:45 1014 29.94 843 24.89 4.5 40.1 59 -2.7 27.1
03:50 1014 29.94 843 24.89 4.5 40.2 64 -1.7 28.9
03:55 1014 29.94 843 24.89 4.5 40.1 59 -2.9 26.8
04:00 1014 29.94 843 24.89 4.6 40.3 60 -2.6 27.4
04:05 1014 29.94 843 24.89 4.7 40.4 58 -2.8 27
04:10 1014 29.94 843 24.89 4.8 40.6 59 -2.7 27.2
04:15 1014 29.94 843 24.89 4.8 40.6 57 -3.1 26.5
04:20 1014 29.94 843 24.89 4.9 40.8 54 -3.6 25.5
04:25 1014 29.94 843 24.89 5 41 54 -3.6 25.5
04:30 1014 29.94 843 24.89 5 41.1 53 -3.8 25.2
04:35 1014 29.94 843 24.89 5 41 58 -2.5 27.5
04:40 1013 29.91 843 24.89 4.8 40.7 58 -2.8 27
04:45 1014 29.94 843 24.89 4.8 40.7 56 -3.1 26.4
04:50 1014 29.94 843 24.89 4.9 40.7 55 -3.5 25.7
04:55 1014 29.94 843 24.89 4.8 40.6 57 -3.1 26.4
05:00 1014 29.94 843 24.89 4.6 40.3 57 -3.1 26.4
05:05 1014 29.94 843 24.89 4.6 40.3 56 -3.4 25.9
05:10 1014 29.94 843 24.89 4.6 40.3 57 -3.2 26.3
05:15 1014 29.94 843 24.89 4.6 40.2 56 -3.4 25.9
05:20 1014 29.94 843 24.89 4.6 40.3 56 -3.5 25.7
05:25 1014 29.94 843 24.89 4.7 40.4 56 -3.4 25.8
05:30 1014 29.94 843 24.89 4.8 40.6 56 -3.3 26
05:35 1014 29.94 843 24.89 4.7 40.5 55 -3.5 25.7
05:40 1014 29.94 843 24.89 4.8 40.6 57 -3 26.7
05:45 1014 29.94 843 24.89 4.8 40.6 58 -2.8 26.9
05:50 1014 29.94 843 24.89 4.7 40.4 58 -2.9 26.8
05:55 1014 29.94 843 24.89 4.6 40.4 55 -3.5 25.7
06:00 1014 29.94 843 24.89 4.6 40.3 60 -2.5 27.5
06:05 1014 29.94 843 24.89 4.5 40.1 59 -2.7 27.1
06:10 1014 29.94 843 24.89 4.4 39.9 59 -2.8 26.9
06:15 1014 29.94 843 24.89 4.4 40 60 -2.7 27.1
06:20 1014 29.94 843 24.89 4.4 40 59 -2.8 27
06:25 1014 29.94 843 24.89 4.4 39.9 58 -3.1 26.4
06:30 1014 29.94 843 24.89 4.4 39.9 58 -3.1 26.4
06:35 1014 29.94 843 24.89 4.4 39.9 59 -2.9 26.7
06:40 1014 29.94 843 24.89 4.2 39.6 63 -2.2 28
06:45 1014 29.94 843 24.89 3.9 39 65 -2 28.3
06:50 1014 29.94 843 24.89 3.7 38.7 65 -2.2 28.1
06:55 1014 29.94 843 24.89 3.7 38.7 65 -2.3 27.8
07:00 1014 29.94 843 24.89 3.8 38.9 63 -2.6 27.4
07:05 1014 29.94 843 24.89 4.1 39.3 61 -2.8 26.9
07:10 1014 29.94 843 24.89 4.3 39.7 59 -3.1 26.4
07:15 1013 29.91 843 24.89 4.5 40.1 58 -3.1 26.4
07:20 1013 29.91 842 24.86 4.7 40.5 58 -2.9 26.8
07:25 1013 29.91 842 24.86 4.8 40.7 56 -3.3 26
07:30 1013 29.91 842 24.86 5 41 54 -3.6 25.5
07:35 1013 29.91 842 24.86 5.3 41.5 53 -3.5 25.7
07:40 1013 29.91 842 24.86 5.5 41.8 53 -3.3 26.1
07:45 1013 29.91 842 24.86 5.8 42.4 51 -3.5 25.8
07:50 1013 29.91 842 24.86 5.8 42.5 49 -4.1 24.6
07:55 1013 29.91 842 24.86 5.9 42.6 49 -4 24.8
08:00 1013 29.91 842 24.86 5.9 42.5 49 -3.9 24.9
08:05 1013 29.91 842 24.86 5.9 42.5 49 -4 24.9
08:10 1013 29.91 843 24.89 5.9 42.6 54 -2.8 27
08:15 1013 29.91 843 24.89 5.6 42.1 59 -1.9 28.7
08:20 1013 29.91 843 24.89 5.4 41.8 58 -2.2 28.1
08:25 1013 29.91 843 24.89 5.7 42.2 57 -2.3 27.9
08:30 1013 29.91 843 24.89 6 42.8 55 -2.4 27.7
08:35 1013 29.91 843 24.89 6.4 43.5 54 -2.3 27.8
08:40 1013 29.91 843 24.89 6.5 43.8 52 -2.6 27.3
08:45 1013 29.91 843 24.89 6.9 44.4 52 -2.1 28.2
08:50 1014 29.94 843 24.89 7.1 44.9 49 -2.8 27
08:55 1014 29.94 843 24.89 6.8 44.2 50 -2.9 26.8
09:00 1014 29.94 843 24.89 6.5 43.7 51 -3 26.6
09:05 1014 29.94 843 24.89 6.4 43.4 53 -2.6 27.3
09:10 1014 29.94 843 24.89 6.5 43.7 53 -2.3 27.8
09:15 1014 29.94 843 24.89 6.4 43.5 54 -2.2 28.1
09:20 1014 29.94 843 24.89 5.9 42.6 55 -2.6 27.4
09:25 1014 29.94 843 24.89 6.1 42.9 54 -2.6 27.4
09:30 1014 29.94 843 24.89 6.3 43.4 52 -2.8 27
09:35 1014 29.94 843 24.89 6.8 44.2 52 -2.5 27.5
09:40 1014 29.94 843 24.89 6.8 44.2 52 -2.3 27.9
09:45 1014 29.94 843 24.89 6.5 43.6 54 -2.3 27.9
09:50 1014 29.94 843 24.89 6.8 44.2 51 -2.6 27.4
09:55 1014 29.94 843 24.89 6.9 44.4 51 -2.4 27.7
10:00 1013 29.91 843 24.89 6.9 44.4 52 -2.3 27.9
10:05 1013 29.91 843 24.89 7.1 44.8 51 -2.4 27.6
10:10 1013 29.91 843 24.89 7.2 44.9 49 -2.7 27.2
10:15 1013 29.91 843 24.89 7.3 45.1 50 -2.5 27.4
10:20 1013 29.91 842 24.86 7.7 45.8 50 -2.1 28.2
10:25 1013 29.91 842 24.86 7.5 45.5 49 -2.4 27.7
10:30 1013 29.91 842 24.86 7.5 45.5 50 -2.4 27.7
10:35 1013 29.91 842 24.86 7.3 45.1 52 -2 28.4
10:40 1013 29.91 842 24.86 7.4 45.3 49 -2.5 27.5
10:45 1013 29.91 842 24.86 8.2 46.7 47 -2.4 27.8
10:50 1013 29.91 842 24.86 8.5 47.3 47 -2.2 28
10:55 1013 29.91 842 24.86 8.1 46.6 48 -2.2 28.1
11:00 1013 29.91 842 24.86 8 46.4 49 -2 28.3
11:05 1013 29.91 842 24.86 8.2 46.7 47 -2.4 27.7
11:10 1013 29.91 842 24.86 8.5 47.2 46 -2.5 27.5
11:15 1013 29.91 843 24.89 9.1 48.4 44 -2.4 27.6
11:20 1013 29.91 843 24.89 8.6 47.4 47 -2.2 28.1
11:25 1013 29.91 843 24.89 8 46.5 46 -2.7 27.1
11:30 1013 29.91 843 24.89 8.5 47.3 42 -3.6 25.5
11:35 1013 29.91 843 24.89 8.9 47.9 43 -3.1 26.5
11:40 1013 29.91 843 24.89 9 48.2 42 -3.1 26.4
11:45 1013 29.91 843 24.89 9.7 49.4 39 -3.4 25.8
11:50 1013 29.91 843 24.89 10.6 51.1 38 -3.2 26.2
11:55 1013 29.91 843 24.89 10.8 51.4 38 -2.8 26.9
12:00 1013 29.91 842 24.86 10.6 51 39 -2.8 26.9
12:05 1013 29.91 842 24.86 10.8 51.4 39 -2.6 27.4
12:10 1013 29.91 842 24.86 10.7 51.3 41 -2 28.4
12:15 1013 29.91 842 24.86 10.5 50.9 41 -2.1 28.2
12:20 1013 29.91 842 24.86 10.1 50.1 41 -2.4 27.7
12:25 1013 29.91 842 24.86 10.5 50.9 40 -2.5 27.5
12:30 1013 29.91 842 24.86 10.2 50.4 41 -2.5 27.5
12:35 1013 29.91 842 24.86 10.1 50.1 42 -2.1 28.2
12:40 1013 29.91 842 24.86 10 50 42 -2.4 27.6
12:45 1013 29.91 842 24.86 10.3 50.6 40 -2.6 27.4
12:50 1013 29.91 842 24.86 10.6 51.1 39 -2.7 27.1
12:55 1013 29.91 842 24.86 11 51.7 39 -2.5 27.5
13:00 1013 29.91 842 24.86 11.3 52.3 39 -2.1 28.3
13:05 1013 29.91 842 24.86 10.7 51.3 43 -1.4 29.5
13:10 1013 29.91 842 24.86 10.9 51.6 42 -1.6 29.2
13:15 1013 29.91 842 24.86 10.8 51.4 42 -1.5 29.3
13:20 1013 29.91 842 24.86 10.6 51.1 44 -1.2 29.9
13:25 1013 29.91 842 24.86 10.4 50.7 43 -1.5 29.3
13:30 1013 29.91 842 24.86 10.4 50.6 46 -0.8 30.5
13:35 1013 29.91 842 24.86 10.6 51.1 45 -0.7 30.7
13:40 1013 29.91 842 24.86 10.8 51.4 45 -0.5 31.1
13:45 1013 29.91 842 24.86 10.5 51 44 -1.1 30.1
13:50 1013 29.91 842 24.86 11 51.9 43 -0.9 30.4
13:55 1013 29.91 842 24.86 11.5 52.6 44 -0.4 31.3
14:00 1013 29.91 842 24.86 11.3 52.4 43 -0.8 30.6
14:05 1013 29.91 842 24.86 11.1 51.9 44 -0.5 31.1
14:10 1013 29.91 842 24.86 10.9 51.7 45 -0.6 30.9
14:15 1013 29.91 842 24.86 10.5 50.9 46 -0.6 31
14:20 1013 29.91 842 24.86 10.5 50.9 47 -0.4 31.3
14:25 1013 29.91 842 24.86 10.4 50.7 45 -0.9 30.4
14:30 1013 29.91 842 24.86 11.2 52.1 44 -0.7 30.7
14:35 1013 29.91 842 24.86 11.6 52.9 44 -0.1 31.9
14:40 1013 29.91 842 24.86 11.2 52.1 45 -0.2 31.7
14:45 1013 29.91 842 24.86 11 51.7 45 -0.4 31.2
14:50 1013 29.91 842 24.86 10.6 51.2 45 -0.6 30.8
14:55 1013 29.91 842 24.86 10.6 51 45 -0.7 30.7
15:00 1013 29.91 842 24.86 10.3 50.5 48 -0.3 31.5
15:05 1013 29.91 842 24.86 10 50 50 0.1 32.1
15:10 1013 29.91 842 24.86 9.5 49.1 52 0.1 32.1
15:15 1013 29.91 842 24.86 9.2 48.6 52 -0 32
15:20 1013 29.91 842 24.86 9.5 49 52 0.2 32.3
15:25 1013 29.91 842 24.86 9.5 49 55 0.8 33.5
15:30 1013 29.91 842 24.86 9.1 48.4 53 0.1 32.1
15:35 1013 29.91 842 24.86 8.7 47.7 56 0.4 32.7
15:40 1013 29.91 842 24.86 8.5 47.3 56 0.2 32.4
15:45 1013 29.91 842 24.86 8.4 47.1 59 1 33.8
15:50 1013 29.91 842 24.86 8.1 46.5 58 0.3 32.5
15:55 1013 29.91 842 24.86 7.9 46.3 63 1.3 34.3
16:00 1013 29.91 842 24.86 7.4 45.3 70 2.3 36.1
16:05 1012 29.88 842 24.86 7.5 45.4 67 1.7 35
16:10 1012 29.88 842 24.86 8.1 46.6 62 1.3 34.4
16:15 1012 29.88 842 24.86 8.4 47.1 72 3.6 38.5
16:20 1012 29.88 842 24.86 9.6 49.2 59 2.1 35.8
16:25 1012 29.88 842 24.86 9.7 49.4 60 2.3 36.1
16:30 1012 29.88 842 24.86 9.8 49.7 56 1.6 34.8
16:35 1012 29.88 842 24.86 9.2 48.6 57 1.2 34.2
16:40 1012 29.88 842 24.86 8.7 47.6 62 1.7 35.1
16:45 1012 29.88 841 24.83 8.7 47.6 61 1.7 35.1
16:50 1012 29.88 841 24.83 8.7 47.7 63 2.1 35.7
16:55 1012 29.88 841 24.83 9.2 48.5 61 2.2 35.9
17:00 1012 29.88 842 24.86 8.6 47.4 59 1.1 34
17:05 1012 29.88 842 24.86 8 46.4 63 1.5 34.7
17:10 1012 29.88 842 24.86 8.1 46.5 63 1.5 34.7
17:15 1012 29.88 842 24.86 8.1 46.5 63 1.6 34.8
17:20 1012 29.88 842 24.86 8.2 46.7 62 1.4 34.5
17:25 1012 29.88 841 24.83 8.4 47.2 63 1.7 35.1
17:30 1012 29.88 841 24.83 8.7 47.7 59 1.3 34.3
17:35 1012 29.88 841 24.83 8.5 47.4 60 1.3 34.3
17:40 1012 29.88 841 24.83 8.6 47.4 60 1.2 34.1
17:45 1012 29.88 842 24.86 8.8 47.8 59 1.3 34.4
17:50 1012 29.88 842 24.86 9 48.2 60 1.8 35.3
17:55 1012 29.88 842 24.86 8.7 47.7 62 1.8 35.3
18:00 1012 29.88 841 24.83 8.7 47.7 62 1.9 35.4
18:05 1012 29.88 841 24.83 8.5 47.2 62 1.6 35
18:10 1012 29.88 842 24.86 8.7 47.6 62 1.7 35.1
18:15 1012 29.88 842 24.86 9.1 48.3 60 1.7 35.1
18:20 1012 29.88 842 24.86 8.9 48 61 1.8 35.2
18:25 1012 29.88 842 24.86 9 48.2 60 1.6 34.9
18:30 1012 29.88 842 24.86 9.2 48.5 59 1.6 34.9
18:35 1013 29.91 842 24.86 9.3 48.7 57 1.3 34.3
18:40 1013 29.91 842 24.86 9.2 48.6 59 1.6 34.9
18:45 1013 29.91 842 24.86 9.1 48.4 57 1.1 34
18:50 1013 29.91 842 24.86 8.9 47.9 56 0.5 32.9
18:55 1013 29.91 842 24.86 8.2 46.8 59 0.8 33.4
19:00 1013 29.91 842 24.86 7.7 45.8 62 0.9 33.6
19:05 1013 29.91 842 24.86 7.6 45.7 65 1.4 34.5
19:10 1013 29.91 842 24.86 7.7 45.9 64 1.3 34.4
19:15 1012 29.88 842 24.86 7.9 46.3 64 1.5 34.8
19:20 1012 29.88 842 24.86 7.7 45.9 64 1.4 34.6
19:25 1012 29.88 842 24.86 7.5 45.6 65 1.4 34.6
19:30 1012 29.88 842 24.86 7.3 45.1 67 1.7 35
19:35 1012 29.88 842 24.86 6.9 44.5 69 1.7 35.1
19:40 1012 29.88 842 24.86 6.7 44.1 68 1.3 34.3
19:45 1012 29.88 842 24.86 6.3 43.4 70 1.3 34.3
19:50 1013 29.91 842 24.86 6.3 43.4 70 1.3 34.3
19:55 1013 29.91 842 24.86 6.3 43.4 69 1.1 33.9
20:00 1013 29.91 842 24.86 6.5 43.7 70 1.5 34.6
20:05 1013 29.91 842 24.86 6.6 43.9 70 1.5 34.7
20:10 1013 29.91 842 24.86 6.9 44.4 71 2.1 35.7
20:15 1013 29.91 842 24.86 6.9 44.3 71 2 35.5
20:20 1013 29.91 842 24.86 6.7 44 72 2 35.5
20:25 1013 29.91 842 24.86 6.6 43.8 72 1.9 35.4
20:30 1013 29.91 842 24.86 6.3 43.4 72 1.7 35.1
20:35 1013 29.91 842 24.86 6.3 43.3 73 1.8 35.2
20:40 1013 29.91 842 24.86 6.2 43.2 73 1.8 35.2
20:45 1013 29.91 842 24.86 5.9 42.6 75 1.9 35.4
20:50 1013 29.91 842 24.86 5.9 42.6 76 2.1 35.7
20:55 1013 29.91 842 24.86 6.1 43 76 2.2 36
21:00 1013 29.91 842 24.86 6.3 43.4 75 2.1 35.8
21:05 1013 29.91 842 24.86 6.3 43.4 78 2.7 36.9
21:10 1013 29.91 842 24.86 6.2 43.2 80 3 37.4
21:15 1013 29.91 842 24.86 6.1 42.9 83 3.4 38.2
21:20 1013 29.91 842 24.86 5.9 42.6 84 3.4 38
21:25 1013 29.91 842 24.86 5.7 42.3 85 3.4 38.1
21:30 1013 29.91 842 24.86 5.7 42.3 84 3.3 37.9
21:35 1013 29.91 842 24.86 5.6 42.1 85 3.3 38
21:40 1013 29.91 842 24.86 5.5 42 86 3.3 38
21:45 1013 29.91 842 24.86 5.5 41.9 86 3.3 38
21:50 1013 29.91 842 24.86 5.6 42.1 86 3.4 38.1
21:55 1013 29.91 842 24.86 5.7 42.3 85 3.4 38.1
22:00 1013 29.91 842 24.86 5.5 42 85 3.2 37.8
22:05 1013 29.91 842 24.86 5.4 41.6 86 3.2 37.7
22:10 1013 29.91 842 24.86 5.3 41.5 86 3.2 37.7
22:15 1013 29.91 842 24.86 5.2 41.4 86 3.1 37.7
22:20 1013 29.91 842 24.86 5.2 41.3 85 2.9 37.2
22:25 1013 29.91 842 24.86 5.2 41.3 85 2.9 37.3
22:30 1013 29.91 842 24.86 5.2 41.3 85 2.9 37.2
22:35 1013 29.91 842 24.86 5.2 41.4 85 2.8 37.1
22:40 1013 29.91 842 24.86 5.2 41.3 84 2.7 36.9
22:45 1013 29.91 842 24.86 5.2 41.3 84 2.7 36.9
22:50 1013 29.91 842 24.86 5.3 41.5 83 2.7 36.8
22:55 1012 29.88 842 24.86 5.2 41.4 84 2.7 36.9
23:00 1012 29.88 842 24.86 5.1 41.1 85 2.8 37.1
23:05 1012 29.88 841 24.83 4.9 40.9 86 2.8 37.1
23:10 1012 29.88 841 24.83 4.8 40.7 85 2.6 36.6
23:15 1012 29.88 841 24.83 4.8 40.7 85 2.5 36.4
23:20 1012 29.88 841 24.83 4.9 40.8 84 2.4 36.4
23:25 1012 29.88 841 24.83 4.9 40.8 84 2.3 36.2
23:30 1012 29.88 841 24.83 4.9 40.9 82 2.2 35.9
23:35 1012 29.88 841 24.83 5 41 81 2.1 35.8
23:40 1012 29.88 841 24.83 5.1 41.1 82 2.2 36
23:45 1012 29.88 841 24.83 5 41 83 2.3 36.1
23:50 1012 29.88 841 24.83 4.8 40.7 83 2.3 36.1
23:55 1012 29.88 841 24.83 4.7 40.5 84 2.2 36
24:00 1012 29.88 841 24.83 4.6 40.3 84 2.1 35.8